Time;durP1;ratioP1;P1;durP2;ratioP2;P2;SDS_P1;SDS_P2;PMS_P1;PMS_P2;Temp;Humidity;BMP_temperature;BMP_pressure;BME280_temperature;BME280_humidity;BME280_pressure;Samples;Min_cycle;Max_cycle;Signal;HPM_P1;HPM_P2
2022/04/24 00:00:22;;;;;;;53.93;30.37;;;;;;;;;;5092754;28;20465;-72
2022/04/24 00:02:50;;;;;;;45.27;26.13;;;;;;;;;;5093155;28;20495;-71
2022/04/24 00:05:17;;;;;;;58.33;29.90;;;;;;;;;;5092645;28;20954;-71
2022/04/24 00:07:45;;;;;;;48.70;29.37;;;;;;;;;;5092900;28;20818;-71
2022/04/24 00:10:12;;;;;;;48.90;26.33;;;;;;;;;;5092449;28;20585;-71
2022/04/24 00:12:39;;;;;;;60.77;30.03;;;;;;;;;;5092667;28;20457;-72
2022/04/24 00:15:06;;;;;;;55.53;30.40;;;;;;;;;;5092738;28;20956;-72
2022/04/24 00:17:33;;;;;;;42.73;26.73;;;;;;;;;;5094263;28;20461;-71
2022/04/24 00:20:02;;;;;;;55.17;30.43;;;;;;;;;;5096425;28;20467;-71
2022/04/24 00:22:29;;;;;;;54.10;27.40;;;;;;;;;;5096069;28;20825;-71
2022/04/24 00:24:56;;;;;;;48.77;24.00;;;;;;;;;;5096218;28;20454;-72
2022/04/24 00:27:23;;;;;;;47.63;28.33;;;;;;;;;;5096239;28;20458;-72
2022/04/24 00:29:51;;;;;;;50.83;30.00;;;;;;;;;;5096163;28;20490;-72
2022/04/24 00:32:18;;;;;;;46.90;27.50;;;;;;;;;;5096249;28;20463;-72
2022/04/24 00:34:45;;;;;;;50.97;29.57;;;;;;;;;;5096142;28;20461;-72
2022/04/24 00:37:14;;;;;;;45.93;24.70;;;;;;;;;;5096187;28;20455;-71
2022/04/24 00:39:41;;;;;;;55.87;30.10;;;;;;;;;;5096184;28;20842;-71
2022/04/24 00:42:09;;;;;;;48.63;27.70;;;;;;;;;;5095919;28;20453;-73
2022/04/24 00:44:36;;;;;;;45.87;27.53;;;;;;;;;;5095944;28;20451;-72
2022/04/24 00:47:04;;;;;;;58.80;29.77;;;;;;;;;;5095929;28;20457;-71
2022/04/24 00:49:32;;;;;;;48.67;28.23;;;;;;;;;;5095932;28;20870;-72
2022/04/24 00:51:59;;;;;;;46.20;25.80;;;;;;;;;;5095975;28;20846;-72
2022/04/24 00:54:27;;;;;;;45.27;24.63;;;;;;;;;;5095825;28;20447;-72
2022/04/24 00:56:54;;;;;;;40.43;24.30;;;;;;;;;;5095805;28;20458;-72
2022/04/24 00:59:21;;;;;;;54.73;28.23;;;;;;;;;;5095690;28;20482;-72
2022/04/24 01:01:49;;;;;;;48.43;28.97;;;;;;;;;;5095752;28;20451;-71
2022/04/24 01:04:16;;;;;;;44.97;26.93;;;;;;;;;;5095416;28;20443;-72
2022/04/24 01:06:43;;;;;;;50.97;25.47;;;;;;;;;;5095807;28;20450;-72
2022/04/24 01:09:15;;;;;;;45.23;27.57;;;;;;;;;;5095316;28;20470;-72
2022/04/24 01:11:44;;;;;;;42.90;25.43;;;;;;;;;;5095534;28;20458;-71
2022/04/24 01:14:11;;;;;;;46.67;26.13;;;;;;;;;;5095394;28;20461;-72
2022/04/24 01:16:39;;;;;;;47.73;26.63;;;;;;;;;;5095522;28;20450;-72
2022/04/24 01:19:06;;;;;;;44.03;25.30;;;;;;;;;;5095357;28;20496;-72
2022/04/24 01:21:35;;;;;;;46.30;28.13;;;;;;;;;;5094962;28;20455;-72
2022/04/24 01:24:05;;;;;;;46.03;26.50;;;;;;;;;;5094990;28;20466;-72
2022/04/24 01:26:32;;;;;;;42.27;23.77;;;;;;;;;;5095437;28;20454;-72
2022/04/24 01:28:59;;;;;;;40.20;24.50;;;;;;;;;;5094837;28;20470;-71
2022/04/24 01:31:26;;;;;;;38.50;23.00;;;;;;;;;;5095230;28;20493;-72
2022/04/24 01:33:53;;;;;;;48.30;26.70;;;;;;;;;;5094873;28;20830;-72
2022/04/24 01:36:21;;;;;;;38.27;23.90;;;;;;;;;;5095023;28;20454;-71
2022/04/24 01:38:49;;;;;;;50.90;27.90;;;;;;;;;;5095084;28;20654;-71
2022/04/24 01:41:16;;;;;;;43.37;24.67;;;;;;;;;;5095113;28;20450;-72
2022/04/24 01:43:44;;;;;;;39.83;23.03;;;;;;;;;;5094794;28;20450;-72
2022/04/24 01:46:12;;;;;;;43.90;23.10;;;;;;;;;;5094842;28;20454;-72
2022/04/24 01:48:39;;;;;;;43.30;25.67;;;;;;;;;;5094814;28;20481;-72
2022/04/24 01:51:07;;;;;;;45.20;26.97;;;;;;;;;;5094497;28;20491;-72
2022/04/24 01:53:34;;;;;;;41.53;23.03;;;;;;;;;;5094713;28;20455;-71
2022/04/24 01:56:04;;;;;;;39.17;22.80;;;;;;;;;;5094726;28;20454;-72
2022/04/24 01:58:31;;;;;;;43.07;23.30;;;;;;;;;;5094688;28;20474;-71
2022/04/24 02:00:58;;;;;;;39.77;25.43;;;;;;;;;;5094770;28;20450;-72
2022/04/24 02:03:26;;;;;;;44.50;26.03;;;;;;;;;;5094535;28;20462;-73
2022/04/24 02:05:53;;;;;;;40.10;23.73;;;;;;;;;;5094740;28;20458;-72
2022/04/24 02:08:21;;;;;;;41.53;25.53;;;;;;;;;;5094282;28;20453;-72
2022/04/24 02:10:48;;;;;;;38.10;22.33;;;;;;;;;;5094539;28;20995;-71
2022/04/24 02:13:16;;;;;;;30.97;21.07;;;;;;;;;;5094327;28;20873;-72
2022/04/24 02:15:45;;;;;;;42.47;26.47;;;;;;;;;;5094304;28;20462;-72
2022/04/24 02:18:12;;;;;;;41.10;24.53;;;;;;;;;;5094251;28;20506;-72
2022/04/24 02:20:39;;;;;;;38.67;25.00;;;;;;;;;;5094501;28;20453;-71
2022/04/24 02:23:06;;;;;;;40.07;24.17;;;;;;;;;;5093674;28;20467;-71
2022/04/24 02:25:33;;;;;;;41.80;25.20;;;;;;;;;;5094140;28;20808;-71
2022/04/24 02:28:00;;;;;;;31.67;21.87;;;;;;;;;;5094357;28;20450;-72
2022/04/24 02:30:30;;;;;;;38.20;23.00;;;;;;;;;;5093789;28;20490;-71
2022/04/24 02:32:58;;;;;;;40.03;24.53;;;;;;;;;;5093987;28;20446;-72
2022/04/24 02:35:25;;;;;;;43.33;22.87;;;;;;;;;;5093733;28;20486;-72
2022/04/24 02:37:52;;;;;;;40.10;23.70;;;;;;;;;;5093968;28;20454;-72
2022/04/24 02:40:21;;;;;;;40.90;26.10;;;;;;;;;;5093087;28;20478;-72
2022/04/24 02:42:48;;;;;;;33.87;22.03;;;;;;;;;;5093762;28;20896;-72
2022/04/24 02:45:15;;;;;;;33.00;18.63;;;;;;;;;;5093407;28;20827;-71
2022/04/24 02:47:44;;;;;;;28.87;18.90;;;;;;;;;;5093797;28;20463;-71
2022/04/24 02:50:11;;;;;;;33.43;20.87;;;;;;;;;;5093423;28;20498;-72
2022/04/24 02:52:46;;;;;;;37.50;22.10;;;;;;;;;;5093453;28;20811;-72
2022/04/24 02:55:13;;;;;;;36.57;21.60;;;;;;;;;;5093339;28;20458;-72
2022/04/24 02:57:40;;;;;;;38.57;23.67;;;;;;;;;;5093541;28;20451;-72
2022/04/24 03:00:08;;;;;;;32.50;21.30;;;;;;;;;;5093286;28;20466;-72
2022/04/24 03:02:39;;;;;;;28.40;17.70;;;;;;;;;;5093633;28;20952;-72
2022/04/24 03:05:08;;;;;;;35.73;21.23;;;;;;;;;;5093117;28;20455;-72
2022/04/24 03:07:35;;;;;;;31.60;20.00;;;;;;;;;;5093478;28;20457;-71
2022/04/24 03:10:02;;;;;;;28.40;17.73;;;;;;;;;;5093219;28;20482;-72
2022/04/24 03:12:30;;;;;;;39.87;21.17;;;;;;;;;;5093390;28;20458;-72
2022/04/24 03:14:58;;;;;;;34.63;21.77;;;;;;;;;;5093128;28;20943;-72
2022/04/24 03:17:25;;;;;;;37.13;22.20;;;;;;;;;;5093492;28;20453;-72
2022/04/24 03:19:52;;;;;;;36.93;20.67;;;;;;;;;;5093217;28;20474;-73
2022/04/24 03:22:20;;;;;;;35.23;22.97;;;;;;;;;;5093039;28;20804;-72
2022/04/24 03:24:47;;;;;;;31.00;20.97;;;;;;;;;;5092842;28;20466;-72
2022/04/24 03:27:14;;;;;;;31.30;19.80;;;;;;;;;;5093198;28;20447;-71
2022/04/24 03:29:41;;;;;;;33.93;20.73;;;;;;;;;;5093037;28;20482;-72
2022/04/24 03:32:09;;;;;;;37.43;23.00;;;;;;;;;;5093024;28;20486;-71
2022/04/24 03:34:37;;;;;;;30.57;18.93;;;;;;;;;;5092964;28;20461;-71
2022/04/24 03:37:04;;;;;;;32.50;21.60;;;;;;;;;;5093064;28;20498;-72
2022/04/24 03:39:33;;;;;;;30.93;20.43;;;;;;;;;;5093095;28;20478;-72
2022/04/24 03:42:00;;;;;;;32.80;18.40;;;;;;;;;;5093113;28;20825;-72
2022/04/24 03:44:27;;;;;;;30.40;19.20;;;;;;;;;;5093024;28;20458;-72
2022/04/24 03:46:54;;;;;;;34.13;20.70;;;;;;;;;;5092995;28;20454;-71
2022/04/24 03:49:21;;;;;;;34.83;20.83;;;;;;;;;;5092991;28;20502;-73
2022/04/24 03:51:49;;;;;;;34.37;20.57;;;;;;;;;;5094854;28;20486;-72
2022/04/24 03:54:16;;;;;;;30.10;21.20;;;;;;;;;;5096849;28;20454;-72
2022/04/24 03:56:44;;;;;;;34.20;21.60;;;;;;;;;;5096989;28;20458;-72
2022/04/24 03:59:11;;;;;;;23.73;17.60;;;;;;;;;;5096783;28;20971;-72
2022/04/24 04:01:39;;;;;;;30.00;19.10;;;;;;;;;;5096840;28;20449;-72
2022/04/24 04:04:06;;;;;;;32.80;19.93;;;;;;;;;;5096859;28;20953;-73
2022/04/24 04:06:33;;;;;;;36.23;21.97;;;;;;;;;;5096794;28;20452;-72
2022/04/24 04:09:00;;;;;;;35.37;20.50;;;;;;;;;;5096685;28;20466;-72
2022/04/24 04:11:28;;;;;;;32.23;21.30;;;;;;;;;;5096645;28;21006;-72
2022/04/24 04:13:57;;;;;;;32.67;19.83;;;;;;;;;;5096419;28;20462;-72
2022/04/24 04:16:24;;;;;;;32.30;20.30;;;;;;;;;;5096847;28;20450;-72
2022/04/24 04:18:51;;;;;;;33.63;19.47;;;;;;;;;;5096419;28;20470;-72
2022/04/24 04:21:18;;;;;;;33.87;21.90;;;;;;;;;;5096432;28;20455;-72
2022/04/24 04:23:45;;;;;;;33.53;21.63;;;;;;;;;;5095701;28;20847;-72
2022/04/24 04:26:12;;;;;;;30.93;20.30;;;;;;;;;;5096453;28;20462;-72
2022/04/24 04:28:39;;;;;;;36.47;22.77;;;;;;;;;;5096269;28;20479;-72
2022/04/24 04:31:08;;;;;;;31.00;22.77;;;;;;;;;;5096373;28;20486;-72
2022/04/24 04:33:36;;;;;;;37.60;24.43;;;;;;;;;;5096066;28;20454;-72
2022/04/24 04:36:03;;;;;;;32.17;21.23;;;;;;;;;;5096193;28;20442;-72
2022/04/24 04:38:30;;;;;;;41.43;21.87;;;;;;;;;;5096286;28;20458;-72
2022/04/24 04:40:57;;;;;;;29.73;20.57;;;;;;;;;;5096361;28;20940;-72
2022/04/24 04:43:26;;;;;;;35.33;21.80;;;;;;;;;;5096119;28;20449;-72
2022/04/24 04:45:53;;;;;;;27.00;18.67;;;;;;;;;;5096185;28;20478;-72
2022/04/24 04:48:22;;;;;;;25.50;15.90;;;;;;;;;;5096109;28;20943;-72
2022/04/24 04:50:49;;;;;;;24.30;16.83;;;;;;;;;;5096113;28;20489;-72
2022/04/24 04:53:16;;;;;;;19.47;15.03;;;;;;;;;;5095814;28;20450;-72
2022/04/24 04:55:43;;;;;;;22.30;13.90;;;;;;;;;;5095806;28;20935;-72
2022/04/24 04:58:10;;;;;;;18.60;14.23;;;;;;;;;;5095699;28;20469;-73
2022/04/24 05:00:37;;;;;;;17.10;14.10;;;;;;;;;;5096023;28;20447;-73
2022/04/24 05:03:04;;;;;;;14.57;11.80;;;;;;;;;;5095064;28;20457;-72
2022/04/24 05:05:33;;;;;;;15.80;12.67;;;;;;;;;;5095650;28;20811;-72
2022/04/24 05:08:00;;;;;;;13.10;11.57;;;;;;;;;;5095604;28;20454;-73
2022/04/24 05:10:27;;;;;;;16.30;12.30;;;;;;;;;;5095560;28;20466;-72
2022/04/24 05:12:54;;;;;;;16.67;13.40;;;;;;;;;;5095685;28;20442;-72
2022/04/24 05:15:21;;;;;;;15.33;13.67;;;;;;;;;;5095229;28;20456;-73
2022/04/24 05:17:49;;;;;;;14.37;12.87;;;;;;;;;;5095442;28;20516;-72
2022/04/24 05:20:16;;;;;;;15.23;12.77;;;;;;;;;;5095442;28;20549;-72
2022/04/24 05:22:44;;;;;;;15.00;13.20;;;;;;;;;;5094869;28;20458;-73
2022/04/24 05:25:12;;;;;;;14.17;11.90;;;;;;;;;;5095173;28;20458;-72
2022/04/24 05:27:40;;;;;;;14.00;12.60;;;;;;;;;;5095438;28;20490;-73
2022/04/24 05:30:09;;;;;;;15.27;12.17;;;;;;;;;;5095051;28;20474;-73
2022/04/24 05:32:39;;;;;;;14.70;13.13;;;;;;;;;;5095170;28;20486;-73
2022/04/24 05:35:07;;;;;;;16.30;14.20;;;;;;;;;;5095029;28;20817;-73
2022/04/24 05:37:34;;;;;;;13.97;12.47;;;;;;;;;;5095195;28;20451;-72
2022/04/24 05:40:03;;;;;;;13.77;12.30;;;;;;;;;;5094910;28;20510;-73
2022/04/24 05:42:30;;;;;;;17.17;13.87;;;;;;;;;;5095073;28;20486;-73
2022/04/24 05:45:00;;;;;;;16.33;14.63;;;;;;;;;;5094730;28;20459;-72
2022/04/24 05:47:27;;;;;;;17.50;15.47;;;;;;;;;;5095057;28;20504;-72
2022/04/24 05:49:54;;;;;;;17.33;15.53;;;;;;;;;;5094836;28;21101;-72
2022/04/24 05:52:21;;;;;;;17.80;16.00;;;;;;;;;;5094697;28;21003;-72
2022/04/24 05:54:48;;;;;;;22.40;15.03;;;;;;;;;;5094483;28;20451;-72
2022/04/24 05:57:16;;;;;;;17.83;14.50;;;;;;;;;;5094793;28;20940;-72
2022/04/24 05:59:43;;;;;;;21.73;15.07;;;;;;;;;;5094718;28;20971;-72
2022/04/24 06:02:11;;;;;;;17.63;15.27;;;;;;;;;;5094592;28;20828;-72
2022/04/24 06:04:38;;;;;;;21.40;15.00;;;;;;;;;;5094455;28;20818;-72
2022/04/24 06:07:05;;;;;;;17.23;14.10;;;;;;;;;;5094357;28;20458;-73
2022/04/24 06:09:32;;;;;;;24.00;17.27;;;;;;;;;;5094446;28;20481;-72
2022/04/24 06:12:01;;;;;;;33.60;24.73;;;;;;;;;;5094278;28;20482;-72
2022/04/24 06:14:29;;;;;;;24.07;17.87;;;;;;;;;;5093606;28;20461;-72
2022/04/24 06:16:56;;;;;;;22.13;15.87;;;;;;;;;;5094265;28;20446;-72
2022/04/24 06:19:24;;;;;;;23.77;16.20;;;;;;;;;;5094280;28;20471;-72
2022/04/24 06:21:52;;;;;;;24.77;16.30;;;;;;;;;;5093869;28;20451;-73
2022/04/24 06:24:19;;;;;;;18.50;14.90;;;;;;;;;;5094112;28;20878;-72
2022/04/24 06:26:46;;;;;;;19.57;14.10;;;;;;;;;;5094124;28;20455;-72
2022/04/24 06:29:13;;;;;;;19.60;15.80;;;;;;;;;;5094126;28;20475;-72
2022/04/24 06:31:42;;;;;;;17.90;13.80;;;;;;;;;;5094238;28;20533;-72
2022/04/24 06:34:10;;;;;;;17.17;13.70;;;;;;;;;;5093738;28;20462;-73
2022/04/24 06:36:37;;;;;;;16.07;13.67;;;;;;;;;;5093988;28;20457;-73
2022/04/24 06:39:05;;;;;;;17.03;14.90;;;;;;;;;;5094060;28;20482;-73
2022/04/24 06:41:32;;;;;;;14.93;13.13;;;;;;;;;;5094108;28;20446;-73
2022/04/24 06:43:59;;;;;;;16.70;14.23;;;;;;;;;;5093810;28;20998;-73
2022/04/24 06:46:26;;;;;;;15.00;13.40;;;;;;;;;;5094142;28;20959;-73
2022/04/24 06:48:54;;;;;;;13.97;12.57;;;;;;;;;;5093777;28;20870;-73
2022/04/24 06:51:21;;;;;;;15.53;13.93;;;;;;;;;;5093648;28;20486;-73
2022/04/24 06:53:48;;;;;;;14.83;13.33;;;;;;;;;;5093609;28;20446;-73
2022/04/24 06:56:15;;;;;;;15.23;12.63;;;;;;;;;;5093626;28;20462;-73
2022/04/24 06:58:43;;;;;;;15.37;12.90;;;;;;;;;;5093616;28;20482;-73
2022/04/24 07:01:10;;;;;;;15.70;14.20;;;;;;;;;;5093811;28;20454;-73
2022/04/24 07:03:37;;;;;;;13.70;12.30;;;;;;;;;;5093544;28;20477;-73
2022/04/24 07:06:07;;;;;;;13.10;11.90;;;;;;;;;;5093705;28;20465;-73
2022/04/24 07:08:35;;;;;;;13.03;11.77;;;;;;;;;;5093487;28;20976;-73
2022/04/24 07:11:02;;;;;;;14.20;12.80;;;;;;;;;;5093552;28;20522;-72
2022/04/24 07:13:29;;;;;;;14.47;12.37;;;;;;;;;;5093587;28;20940;-73
2022/04/24 07:15:56;;;;;;;12.10;10.90;;;;;;;;;;5093485;28;20458;-73
2022/04/24 07:18:24;;;;;;;14.07;12.67;;;;;;;;;;5093482;28;20455;-73
2022/04/24 07:20:53;;;;;;;13.90;12.20;;;;;;;;;;5093649;28;20454;-73
2022/04/24 07:23:21;;;;;;;15.30;13.73;;;;;;;;;;5092723;28;20458;-72
2022/04/24 07:25:49;;;;;;;15.07;13.43;;;;;;;;;;5092851;28;20451;-72
2022/04/24 07:28:18;;;;;;;13.97;12.67;;;;;;;;;;5093060;28;20455;-73
2022/04/24 07:30:45;;;;;;;15.07;13.57;;;;;;;;;;5093318;28;20501;-73
2022/04/24 07:33:13;;;;;;;19.90;14.20;;;;;;;;;;5093382;28;21007;-72
2022/04/24 07:35:41;;;;;;;13.70;12.10;;;;;;;;;;5092980;28;20457;-73
2022/04/24 07:38:08;;;;;;;14.70;13.07;;;;;;;;;;5093042;28;20811;-73
2022/04/24 07:40:37;;;;;;;14.10;12.70;;;;;;;;;;5093465;28;20435;-73
2022/04/24 07:43:05;;;;;;;14.00;12.47;;;;;;;;;;5093135;28;20453;-74
2022/04/24 07:45:32;;;;;;;13.13;11.80;;;;;;;;;;5093206;28;20455;-73
2022/04/24 07:48:00;;;;;;;13.50;12.10;;;;;;;;;;5093143;28;20466;-73
2022/04/24 07:50:28;;;;;;;12.50;11.17;;;;;;;;;;5093155;28;21010;-73
2022/04/24 07:52:55;;;;;;;11.80;10.60;;;;;;;;;;5093011;28;20485;-73
2022/04/24 07:55:24;;;;;;;11.63;10.53;;;;;;;;;;5092826;28;20446;-73
2022/04/24 07:57:53;;;;;;;11.07;9.77;;;;;;;;;;5092839;28;20447;-73
2022/04/24 08:00:21;;;;;;;11.40;10.30;;;;;;;;;;5093222;28;20505;-73
2022/04/24 08:02:49;;;;;;;10.53;9.43;;;;;;;;;;5093287;28;20939;-73
2022/04/24 08:05:20;;;;;;;12.17;11.00;;;;;;;;;;5092903;28;20451;-73
2022/04/24 08:07:47;;;;;;;11.57;9.90;;;;;;;;;;5093230;28;20952;-73
2022/04/24 08:10:15;;;;;;;12.20;10.60;;;;;;;;;;5092946;28;20482;-73
2022/04/24 08:12:42;;;;;;;11.23;9.63;;;;;;;;;;5093143;28;20991;-73
2022/04/24 08:15:11;;;;;;;11.20;10.10;;;;;;;;;;5092630;28;20455;-72
2022/04/24 08:17:38;;;;;;;12.30;10.10;;;;;;;;;;5092795;28;20826;-72
2022/04/24 08:20:06;;;;;;;11.50;10.13;;;;;;;;;;5092982;28;20474;-75
2022/04/24 08:22:40;;;;;;;12.53;9.90;;;;;;;;;;5092259;28;20446;-75
2022/04/24 08:25:08;;;;;;;12.13;10.83;;;;;;;;;;5092831;28;20474;-73
2022/04/24 08:27:35;;;;;;;12.80;11.50;;;;;;;;;;5092701;28;20442;-73
2022/04/24 08:30:03;;;;;;;13.33;11.30;;;;;;;;;;5092533;28;20474;-73
2022/04/24 08:32:32;;;;;;;14.17;12.67;;;;;;;;;;5092617;28;20490;-74
2022/04/24 08:34:59;;;;;;;14.83;12.30;;;;;;;;;;5092561;28;21068;-74
2022/04/24 08:37:27;;;;;;;14.13;12.17;;;;;;;;;;5092837;28;20931;-74
2022/04/24 08:39:54;;;;;;;13.80;10.50;;;;;;;;;;5096111;28;20544;-74
2022/04/24 08:42:22;;;;;;;14.30;11.10;;;;;;;;;;5096532;28;20931;-73
2022/04/24 08:44:49;;;;;;;13.83;11.80;;;;;;;;;;5096061;28;20454;-73
2022/04/24 08:47:17;;;;;;;12.33;10.47;;;;;;;;;;5096042;28;20515;-73
2022/04/24 08:49:46;;;;;;;10.13;9.03;;;;;;;;;;5096363;28;20998;-73
2022/04/24 08:52:13;;;;;;;10.17;9.13;;;;;;;;;;5095958;28;20486;-73
2022/04/24 08:54:41;;;;;;;9.53;8.63;;;;;;;;;;5096050;28;20446;-74
2022/04/24 08:57:08;;;;;;;10.90;9.40;;;;;;;;;;5096150;28;20489;-74
2022/04/24 08:59:36;;;;;;;11.27;8.73;;;;;;;;;;5095901;28;20474;-73
2022/04/24 09:02:03;;;;;;;11.27;9.30;;;;;;;;;;5095862;28;20454;-74
2022/04/24 09:04:33;;;;;;;9.40;8.50;;;;;;;;;;5095662;28;20439;-74
2022/04/24 09:07:02;;;;;;;11.07;9.00;;;;;;;;;;5095783;28;20480;-74
2022/04/24 09:09:29;;;;;;;9.30;8.30;;;;;;;;;;5095911;28;20467;-74
2022/04/24 09:12:07;;;;;;;10.20;8.57;;;;;;;;;;5095572;28;20490;-74
2022/04/24 09:14:35;;;;;;;10.47;8.50;;;;;;;;;;5095660;28;20947;-74
2022/04/24 09:17:05;;;;;;;9.37;7.47;;;;;;;;;;5095767;28;20443;-74
2022/04/24 09:19:33;;;;;;;9.97;8.73;;;;;;;;;;5095516;28;20516;-73
2022/04/24 09:22:06;;;;;;;14.47;12.00;;;;;;;;;;5095265;28;20816;-74
2022/04/24 09:24:41;;;;;;;11.20;9.37;;;;;;;;;;5095159;28;20515;-73
2022/04/24 09:27:08;;;;;;;9.60;8.60;;;;;;;;;;5095361;28;20548;-73
2022/04/24 09:29:35;;;;;;;10.00;7.93;;;;;;;;;;5095447;28;20998;-74
2022/04/24 09:32:02;;;;;;;8.47;7.33;;;;;;;;;;5095300;28;20493;-75
2022/04/24 09:34:30;;;;;;;9.30;8.00;;;;;;;;;;5095129;28;20545;-74
2022/04/24 09:37:01;;;;;;;8.77;6.37;;;;;;;;;;5095187;28;20454;-74
2022/04/24 09:39:30;;;;;;;7.50;6.70;;;;;;;;;;5095322;28;20467;-74
2022/04/24 09:42:04;;;;;;;7.53;6.70;;;;;;;;;;5095150;28;20457;-74
2022/04/24 09:44:37;;;;;;;7.37;6.50;;;;;;;;;;5095126;28;20557;-74
2022/04/24 09:47:05;;;;;;;9.37;7.13;;;;;;;;;;5095126;28;20455;-74
2022/04/24 09:49:35;;;;;;;9.07;8.17;;;;;;;;;;5094670;28;20475;-73
2022/04/24 09:52:02;;;;;;;7.17;6.20;;;;;;;;;;5094993;28;20467;-74
2022/04/24 09:54:31;;;;;;;8.70;7.50;;;;;;;;;;5094520;28;20675;-74
2022/04/24 09:56:59;;;;;;;7.70;6.80;;;;;;;;;;5094885;28;20457;-75
2022/04/24 09:59:26;;;;;;;9.47;7.87;;;;;;;;;;5094615;28;20494;-74
2022/04/24 10:01:54;;;;;;;7.97;7.17;;;;;;;;;;5094756;28;20450;-74
2022/04/24 10:04:21;;;;;;;7.77;6.83;;;;;;;;;;5094493;28;20529;-74
2022/04/24 10:06:49;;;;;;;8.20;5.87;;;;;;;;;;5094608;28;20466;-74
2022/04/24 10:09:16;;;;;;;8.33;7.30;;;;;;;;;;5094679;28;20555;-74
2022/04/24 10:11:46;;;;;;;8.43;6.43;;;;;;;;;;5094454;28;20447;-74
2022/04/24 10:14:14;;;;;;;7.70;6.90;;;;;;;;;;5094108;28;20522;-74
2022/04/24 10:16:52;;;;;;;7.10;6.40;;;;;;;;;;5094574;28;20548;-74
2022/04/24 10:19:27;;;;;;;6.83;6.13;;;;;;;;;;5094244;28;20482;-74
2022/04/24 10:22:04;;;;;;;6.67;6.00;;;;;;;;;;5093811;28;20468;-74
2022/04/24 10:24:39;;;;;;;8.90;6.23;;;;;;;;;;5094038;28;20454;-74
2022/04/24 10:27:09;;;;;;;7.47;6.67;;;;;;;;;;5094083;28;20815;-73
2022/04/24 10:29:36;;;;;;;7.73;6.77;;;;;;;;;;5094362;28;20891;-74
2022/04/24 10:32:04;;;;;;;8.97;5.93;;;;;;;;;;5094287;28;20454;-74
2022/04/24 10:34:39;;;;;;;8.30;7.50;;;;;;;;;;5093898;28;20813;-74
2022/04/24 10:37:06;;;;;;;6.60;5.90;;;;;;;;;;5094088;28;20943;-74
2022/04/24 10:39:35;;;;;;;5.87;4.80;;;;;;;;;;5093824;28;20520;-73
2022/04/24 10:42:08;;;;;;;5.50;4.90;;;;;;;;;;5093780;28;20454;-74
2022/04/24 10:44:37;;;;;;;4.80;3.93;;;;;;;;;;5093749;28;20451;-74
2022/04/24 10:47:11;;;;;;;6.77;4.70;;;;;;;;;;5093674;28;20458;-74
2022/04/24 10:49:39;;;;;;;4.33;3.80;;;;;;;;;;5093791;28;20470;-73
2022/04/24 10:52:07;;;;;;;6.63;4.40;;;;;;;;;;5093765;28;20446;-73
2022/04/24 10:54:35;;;;;;;5.73;4.80;;;;;;;;;;5093362;28;20450;-73
2022/04/24 10:57:03;;;;;;;4.80;3.93;;;;;;;;;;5093761;28;20486;-74
2022/04/24 10:59:45;;;;;;;4.17;3.33;;;;;;;;;;5093489;28;20481;-73
2022/04/24 11:02:12;;;;;;;5.10;4.23;;;;;;;;;;5092991;28;20478;-74
2022/04/24 11:04:43;;;;;;;5.50;4.70;;;;;;;;;;5093310;28;20451;-74
2022/04/24 11:07:21;;;;;;;5.30;4.77;;;;;;;;;;5093386;28;20527;-75
2022/04/24 11:09:48;;;;;;;6.07;5.07;;;;;;;;;;5093626;28;20504;-74
2022/04/24 11:12:15;;;;;;;6.30;5.20;;;;;;;;;;5093360;28;20826;-74
2022/04/24 11:14:42;;;;;;;6.47;5.10;;;;;;;;;;5093311;28;20459;-74
2022/04/24 11:17:11;;;;;;;6.53;5.00;;;;;;;;;;5093355;28;20454;-74
2022/04/24 11:19:39;;;;;;;4.70;4.17;;;;;;;;;;5093303;28;20473;-74
2022/04/24 11:22:08;;;;;;;6.67;6.00;;;;;;;;;;5092786;28;20447;-74
2022/04/24 11:24:36;;;;;;;7.57;6.50;;;;;;;;;;5093015;28;20459;-74
2022/04/24 11:27:05;;;;;;;6.70;6.00;;;;;;;;;;5093345;28;20944;-74
2022/04/24 11:29:33;;;;;;;5.73;4.20;;;;;;;;;;5093229;28;20474;-73
2022/04/24 11:32:00;;;;;;;4.97;4.47;;;;;;;;;;5092929;28;20463;-74
2022/04/24 11:34:28;;;;;;;4.53;3.90;;;;;;;;;;5092747;28;20556;-74
2022/04/24 11:36:56;;;;;;;7.47;4.80;;;;;;;;;;5093060;28;20808;-74
2022/04/24 11:39:23;;;;;;;5.43;4.43;;;;;;;;;;5093013;28;20502;-74
2022/04/24 11:41:52;;;;;;;5.27;4.77;;;;;;;;;;5093389;28;20809;-74
2022/04/24 11:52:37;;;;;;;3.30;3.00;;;;;;;;;;5092964;28;20430;-74
2022/04/24 11:55:05;;;;;;;3.57;3.10;;;;;;;;;;5093062;28;20865;-75
2022/04/24 11:57:32;;;;;;;6.00;2.60;;;;;;;;;;5093073;28;20944;-73
2022/04/24 11:59:59;;;;;;;2.60;1.83;;;;;;;;;;5092656;28;20471;-75
2022/04/24 12:02:27;;;;;;;4.60;2.80;;;;;;;;;;5092814;28;20450;-74
2022/04/24 12:04:56;;;;;;;3.40;2.27;;;;;;;;;;5092677;28;20454;-74
2022/04/24 12:07:30;;;;;;;3.23;2.73;;;;;;;;;;5092818;28;20454;-74
2022/04/24 12:10:01;;;;;;;2.80;2.23;;;;;;;;;;5092722;28;20502;-74
2022/04/24 12:12:28;;;;;;;3.00;2.30;;;;;;;;;;5092940;28;20888;-74
2022/04/24 12:14:56;;;;;;;2.83;2.53;;;;;;;;;;5096398;28;20825;-74
2022/04/24 12:17:23;;;;;;;3.10;2.60;;;;;;;;;;5096943;28;20473;-74
2022/04/24 12:19:51;;;;;;;2.10;1.90;;;;;;;;;;5096604;28;20466;-74
2022/04/24 12:22:27;;;;;;;2.97;2.03;;;;;;;;;;5096157;28;20481;-74
2022/04/24 12:24:54;;;;;;;2.23;1.90;;;;;;;;;;5096355;28;20442;-74
2022/04/24 12:27:21;;;;;;;2.20;1.77;;;;;;;;;;5096471;28;21058;-74
2022/04/24 12:29:49;;;;;;;1.97;1.77;;;;;;;;;;5096415;28;20469;-74
2022/04/24 12:32:17;;;;;;;2.50;1.80;;;;;;;;;;5096290;28;20442;-74
2022/04/24 12:34:44;;;;;;;2.20;1.70;;;;;;;;;;5096203;28;20886;-74
2022/04/24 12:37:12;;;;;;;2.33;1.80;;;;;;;;;;5096476;28;20482;-74
2022/04/24 12:39:40;;;;;;;2.80;1.83;;;;;;;;;;5096222;28;20474;-74
2022/04/24 12:42:16;;;;;;;2.30;1.80;;;;;;;;;;5096180;28;20868;-74
2022/04/24 12:44:43;;;;;;;3.87;2.07;;;;;;;;;;5095912;28;20457;-73
2022/04/24 12:47:10;;;;;;;3.80;1.90;;;;;;;;;;5095956;28;20450;-74
2022/04/24 12:49:39;;;;;;;6.53;3.87;;;;;;;;;;5095981;28;20498;-73
2022/04/24 12:52:07;;;;;;;2.60;2.00;;;;;;;;;;5095929;28;20455;-74
2022/04/24 12:54:34;;;;;;;2.57;2.20;;;;;;;;;;5094751;28;21013;-75
2022/04/24 12:57:02;;;;;;;2.03;1.73;;;;;;;;;;5093810;28;20454;-74
2022/04/24 12:59:29;;;;;;;2.67;1.90;;;;;;;;;;5094287;28;20478;-74
2022/04/24 13:01:57;;;;;;;2.20;1.80;;;;;;;;;;5094666;28;20450;-74
2022/04/24 13:04:24;;;;;;;2.30;1.80;;;;;;;;;;5094256;28;20474;-74
2022/04/24 13:06:51;;;;;;;2.43;1.90;;;;;;;;;;5094565;28;20470;-74
2022/04/24 13:09:19;;;;;;;2.37;2.00;;;;;;;;;;5094553;28;20997;-73
2022/04/24 13:11:46;;;;;;;2.40;1.90;;;;;;;;;;5095968;28;20940;-73
2022/04/24 13:14:14;;;;;;;2.10;1.90;;;;;;;;;;5095661;28;20885;-74
2022/04/24 13:19:26;;;;;;;2.33;1.67;;;;;;;;;;5095547;28;20462;-73
2022/04/24 13:21:53;;;;;;;1.77;1.60;;;;;;;;;;5094994;28;20455;-74
2022/04/24 13:24:21;;;;;;;2.57;2.00;;;;;;;;;;5094723;28;20459;-73
2022/04/24 13:26:48;;;;;;;4.87;1.73;;;;;;;;;;5095510;28;20450;-74
2022/04/24 13:29:16;;;;;;;2.97;1.70;;;;;;;;;;5095503;28;20979;-73
2022/04/24 13:31:47;;;;;;;2.30;1.77;;;;;;;;;;5095316;28;20815;-74
2022/04/24 13:34:14;;;;;;;2.87;2.53;;;;;;;;;;5094981;28;20483;-74
2022/04/24 13:36:42;;;;;;;2.07;1.73;;;;;;;;;;5095365;28;20451;-73
2022/04/24 13:39:08;;;;;;;2.83;1.73;;;;;;;;;;5095380;28;20479;-74
2022/04/24 13:41:35;;;;;;;1.93;1.63;;;;;;;;;;5095366;28;20446;-74
2022/04/24 13:44:02;;;;;;;1.83;1.53;;;;;;;;;;5094792;28;20455;-74
2022/04/24 13:46:31;;;;;;;2.20;1.80;;;;;;;;;;5095237;28;20449;-73
2022/04/24 13:48:58;;;;;;;2.70;2.07;;;;;;;;;;5094855;28;20532;-73
2022/04/24 13:51:25;;;;;;;2.33;1.60;;;;;;;;;;5095121;28;20447;-73
2022/04/24 13:53:54;;;;;;;1.90;1.30;;;;;;;;;;5094540;28;20509;-74
2022/04/24 13:56:21;;;;;;;1.60;1.20;;;;;;;;;;5095037;28;20454;-74
2022/04/24 13:58:48;;;;;;;1.57;1.20;;;;;;;;;;5094716;28;20478;-73
2022/04/24 14:01:15;;;;;;;1.73;1.30;;;;;;;;;;5094926;28;20462;-73
2022/04/24 14:03:45;;;;;;;2.00;0.90;;;;;;;;;;5094546;28;20457;-73
2022/04/24 14:06:12;;;;;;;1.40;1.00;;;;;;;;;;5094460;28;20497;-73
2022/04/24 14:08:39;;;;;;;3.27;1.97;;;;;;;;;;5094424;28;20475;-73
2022/04/24 14:11:09;;;;;;;3.10;0.80;;;;;;;;;;5094918;28;20442;-73
2022/04/24 14:13:36;;;;;;;1.90;1.20;;;;;;;;;;5094422;28;20513;-73
2022/04/24 14:16:05;;;;;;;1.47;1.00;;;;;;;;;;5094368;28;20458;-74
2022/04/24 14:18:32;;;;;;;1.30;0.80;;;;;;;;;;5094493;28;20474;-73
2022/04/24 14:21:01;;;;;;;1.93;1.30;;;;;;;;;;5094439;28;20450;-73
2022/04/24 14:23:28;;;;;;;1.70;1.00;;;;;;;;;;5093669;28;20469;-75
2022/04/24 14:25:55;;;;;;;1.80;1.10;;;;;;;;;;5094231;28;20451;-74
2022/04/24 14:28:24;;;;;;;1.20;0.80;;;;;;;;;;5094213;28;20946;-74
2022/04/24 14:30:52;;;;;;;2.17;0.90;;;;;;;;;;5094159;28;20454;-73
2022/04/24 14:33:19;;;;;;;1.40;0.90;;;;;;;;;;5093023;28;20887;-74
2022/04/24 14:35:46;;;;;;;1.30;0.90;;;;;;;;;;5093283;28;20462;-74
2022/04/24 14:38:15;;;;;;;7.77;4.77;;;;;;;;;;5094106;28;20450;-74
2022/04/24 14:40:43;;;;;;;1.50;1.03;;;;;;;;;;5094209;28;20467;-73